createdAt,value
2023-10-17T00:00:14.863Z,6
2023-10-17T00:02:17.727Z,6.9
2023-10-17T00:04:23.528Z,6.5
2023-10-17T00:06:29.121Z,6.1
2023-10-17T00:08:34.782Z,6.2
2023-10-17T00:10:40.484Z,5.8
2023-10-17T00:12:49.240Z,5.3
2023-10-17T00:17:00.691Z,5.5
2023-10-17T00:19:06.412Z,7.2
2023-10-17T00:21:12.142Z,6.9
2023-10-17T00:23:17.808Z,6.4
2023-10-17T00:25:23.480Z,6.6
2023-10-17T00:32:48.091Z,6.8
2023-10-17T00:34:53.815Z,7.2
2023-10-17T00:36:59.482Z,6
2023-10-17T00:39:05.272Z,6
2023-10-17T00:43:19.680Z,6.2
2023-10-17T00:45:25.437Z,7.5
2023-10-17T00:47:31.100Z,6.5
2023-10-17T00:49:36.786Z,5.7
2023-10-17T00:51:42.507Z,6.8
2023-10-17T00:55:57.001Z,5.4
2023-10-17T00:58:02.714Z,6.4
2023-10-17T01:00:08.445Z,7.2
2023-10-17T01:02:14.184Z,6
2023-10-17T01:04:19.856Z,6.2
2023-10-17T01:06:25.729Z,6.4
2023-10-17T01:08:31.316Z,6.3
2023-10-17T01:10:40.086Z,7.3
2023-10-17T01:12:45.812Z,6.1
2023-10-17T01:14:51.505Z,6.5
2023-10-17T01:16:57.294Z,5.6
2023-10-17T01:21:08.634Z,6
2023-10-17T01:25:23.157Z,7
2023-10-17T01:27:28.883Z,7.1
2023-10-17T01:29:34.583Z,6
2023-10-17T01:30:39.045Z,6.8
2023-10-17T01:39:04.865Z,5.5
2023-10-17T01:41:10.555Z,5.7
2023-10-17T01:45:22.009Z,5.4
2023-10-17T01:49:35.004Z,6.4
2023-10-17T01:51:40.677Z,6.4
2023-10-17T01:53:49.462Z,6.1
2023-10-17T01:55:55.151Z,4.8
2023-10-17T01:58:01.032Z,5.5
2023-10-17T02:00:06.622Z,5.7
2023-10-17T02:06:23.884Z,6.3
2023-10-17T02:10:38.437Z,5.7
2023-10-17T02:12:43.919Z,5.6
2023-10-17T02:14:49.650Z,6.3
2023-10-17T02:16:55.368Z,6.2
2023-10-17T02:19:01.076Z,5.9
2023-10-17T02:21:06.791Z,6.4
2023-10-17T02:23:15.552Z,6.9
2023-10-17T02:25:21.278Z,6.1
2023-10-17T02:27:27.035Z,6.9
2023-10-17T02:38:22.412Z,5.7
2023-10-17T02:40:28.140Z,6.8
2023-10-17T02:53:05.405Z,6.6
2023-10-17T02:55:11.097Z,6.6
2023-10-17T02:57:16.821Z,6.2
2023-10-17T02:59:22.523Z,5.7
2023-10-17T03:01:28.281Z,5.6
2023-10-17T03:03:34.072Z,4.2
2023-10-17T03:07:48.430Z,5.8
2023-10-17T03:09:54.155Z,5.4
2023-10-17T03:14:05.538Z,5.5
2023-10-17T03:18:17.084Z,6.2
2023-10-17T03:22:31.411Z,5.9
2023-10-17T03:24:37.129Z,7.4
2023-10-17T03:25:41.476Z,6.1
2023-10-17T03:29:52.876Z,7.7
2023-10-17T03:31:58.606Z,9.1
2023-10-17T03:36:13.137Z,6.8
2023-10-17T03:38:18.806Z,7.1
2023-10-17T03:44:35.949Z,7.3
2023-10-17T03:46:41.615Z,7.3
2023-10-17T04:01:24.793Z,6.8
2023-10-17T04:03:33.480Z,6.9
2023-10-17T04:05:39.208Z,6.5
2023-10-17T04:09:50.542Z,6.3
2023-10-17T04:11:56.244Z,7.4
2023-10-17T04:14:02.041Z,6
2023-10-17T04:16:07.607Z,7.7
2023-10-17T04:18:16.524Z,7.1
2023-10-17T04:20:22.111Z,7.8
2023-10-17T04:22:27.794Z,7.1
2023-10-17T04:25:37.933Z,7.8
2023-10-17T04:27:43.605Z,6.9
2023-10-17T04:40:20.943Z,5.4
2023-10-17T04:42:26.715Z,6.6
2023-10-17T04:44:32.337Z,7.5
2023-10-17T05:01:24.125Z,7.3
2023-10-17T05:03:29.838Z,7.4
2023-10-17T05:05:35.488Z,7.7
2023-10-17T05:09:46.886Z,8.1
2023-10-17T05:11:52.546Z,8.5
2023-10-17T05:16:09.441Z,9.2
2023-10-17T05:20:18.406Z,8.1
2023-10-17T05:21:22.790Z,8
2023-10-17T05:23:28.453Z,8.9
2023-10-17T05:27:39.896Z,9.3
2023-10-17T05:38:11.378Z,8.6
2023-10-17T05:40:17.038Z,8.6
2023-10-17T05:42:22.699Z,8.8
2023-10-17T05:44:31.482Z,9.3
2023-10-17T05:46:37.134Z,8.7
2023-10-17T05:59:14.287Z,10.1
2023-10-17T06:01:19.987Z,9.9
2023-10-17T06:03:25.701Z,9.3
2023-10-17T06:07:36.962Z,9.9
2023-10-17T06:09:42.735Z,10.7
2023-10-17T06:11:48.299Z,10.3
2023-10-17T06:13:57.045Z,14.3
2023-10-17T06:16:02.740Z,11.5
2023-10-17T06:18:08.624Z,10.3
2023-10-17T06:20:39.883Z,11.5
2023-10-17T06:22:45.583Z,11.3
2023-10-17T06:24:51.269Z,13
2023-10-17T06:29:05.669Z,11.1
2023-10-17T06:37:28.291Z,12.3
2023-10-17T06:39:34.026Z,13.8
2023-10-17T06:41:42.708Z,13.5
2023-10-17T06:43:48.360Z,14.9
2023-10-17T06:45:54.151Z,14
2023-10-17T06:47:59.758Z,15.4
2023-10-17T06:50:05.361Z,13.7
2023-10-17T06:52:11.632Z,14.7
2023-10-17T06:54:16.701Z,14.4
2023-10-17T06:56:25.468Z,13.8
2023-10-17T06:58:31.115Z,14.8
2023-10-17T07:00:36.822Z,13.6
2023-10-17T07:04:48.213Z,12.7
2023-10-17T07:11:08.205Z,16.3
2023-10-17T07:15:19.625Z,18
2023-10-17T07:16:23.989Z,20.3
2023-10-17T07:20:35.368Z,22
2023-10-17T07:33:13.005Z,16.5
2023-10-17T07:35:18.735Z,15.1
2023-10-17T07:37:24.519Z,12
2023-10-17T07:39:33.341Z,9.5
2023-10-17T07:43:44.875Z,7.2
2023-10-17T07:45:50.731Z,6.1
2023-10-17T07:47:56.598Z,6.5
2023-10-17T07:50:02.135Z,5.8
2023-10-17T07:54:18.187Z,5.9
2023-10-17T07:56:23.902Z,5.6
2023-10-17T08:00:35.502Z,4.5
2023-10-17T08:09:01.454Z,3.9
2023-10-17T08:13:12.916Z,3.5
2023-10-17T08:14:17.313Z,2.7
2023-10-17T08:16:23.087Z,2.6
2023-10-17T08:18:28.907Z,3.4
2023-10-17T08:20:34.590Z,2.3
2023-10-17T08:22:43.308Z,2.9
2023-10-17T08:24:49.101Z,2.4
2023-10-17T08:29:00.585Z,2.2
2023-10-17T08:31:06.390Z,2.4
2023-10-17T08:35:18.004Z,2.3
2023-10-17T08:39:32.493Z,2.3
2023-10-17T08:43:43.885Z,2
2023-10-17T08:47:55.500Z,2.3
2023-10-17T08:50:01.222Z,2.3
2023-10-17T08:52:09.971Z,2.1
2023-10-17T08:54:15.695Z,2.2
2023-10-17T08:56:21.458Z,1.9
2023-10-17T08:58:27.202Z,1.7
2023-10-17T09:00:33.098Z,1.8
2023-10-17T09:02:38.748Z,1.9
2023-10-17T09:04:44.554Z,2
2023-10-17T09:06:53.267Z,1.9
2023-10-17T09:08:58.999Z,1.8
2023-10-17T09:12:09.157Z,2.2
2023-10-17T09:14:14.900Z,2
2023-10-17T09:16:20.837Z,1.2
2023-10-17T09:18:26.468Z,1.7
2023-10-17T09:20:35.164Z,1.2
2023-10-17T09:22:40.941Z,1.5
2023-10-17T09:33:09.804Z,1.1
2023-10-17T09:45:47.267Z,1.2
2023-10-17T09:47:53.287Z,2.3
2023-10-17T10:06:50.786Z,1.5
2023-10-17T10:08:56.499Z,0.8
2023-10-17T10:11:27.783Z,1
2023-10-17T10:15:39.317Z,0.8
2023-10-17T10:19:53.774Z,0.8
2023-10-17T10:21:59.589Z,1.3
2023-10-17T10:24:05.317Z,0.9
2023-10-17T10:26:11.054Z,3.8
2023-10-17T10:30:22.651Z,1
2023-10-17T10:43:00.141Z,0.5
2023-10-17T10:45:05.896Z,0.7
2023-10-17T10:47:14.749Z,0.5
2023-10-17T10:49:20.587Z,0.7
2023-10-17T10:55:37.616Z,0.6
2023-10-17T10:57:43.383Z,1.7
2023-10-17T10:59:49.125Z,0.8
2023-10-17T11:01:57.786Z,0.9
2023-10-17T11:04:03.676Z,1.5
2023-10-17T11:06:09.430Z,1.7
2023-10-17T11:07:13.634Z,2
2023-10-17T11:09:19.441Z,0.7
2023-10-17T11:11:25.149Z,0.7
2023-10-17T11:13:30.877Z,0.9
2023-10-17T11:15:39.618Z,0.7
2023-10-17T11:17:45.406Z,0.8
2023-10-17T11:19:51.094Z,0.7
2023-10-17T11:21:56.928Z,0.8
2023-10-17T11:24:02.563Z,0.8
2023-10-17T11:26:20.696Z,1
2023-10-17T11:28:14.045Z,0.7
2023-10-17T11:30:22.772Z,0.9
2023-10-17T11:32:28.529Z,0.9
2023-10-17T11:34:34.249Z,0.9
2023-10-17T11:36:40.034Z,0.8
2023-10-17T11:38:45.798Z,0.7
2023-10-17T11:40:51.447Z,1
2023-10-17T11:45:05.878Z,0.5
2023-10-17T11:47:11.645Z,0.9
2023-10-17T11:49:17.358Z,1
2023-10-17T11:51:23.131Z,1.3
2023-10-17T11:53:28.871Z,1.2
2023-10-17T11:55:34.676Z,1.2
2023-10-17T11:57:40.380Z,1.1
2023-10-17T12:05:04.934Z,1.1
2023-10-17T12:07:10.671Z,1.1
2023-10-17T12:09:16.434Z,1.2
2023-10-17T12:15:36.690Z,1.6
2023-10-17T12:23:59.696Z,1.3
2023-10-17T12:26:05.401Z,0.9
2023-10-17T12:28:14.124Z,1
2023-10-17T12:51:20.400Z,1.3
2023-10-17T12:55:31.852Z,1.4
2023-10-17T12:57:40.679Z,1.2
2023-10-17T12:59:46.310Z,1
2023-10-17T13:01:52.073Z,1.1
2023-10-17T13:02:56.505Z,1.4
2023-10-17T13:05:02.290Z,1.2
2023-10-17T13:07:07.969Z,1.2
2023-10-17T13:11:22.421Z,2.2
2023-10-17T13:15:33.979Z,1.5
2023-10-17T13:17:39.697Z,1.1
2023-10-17T13:19:45.441Z,1.8
2023-10-17T13:21:51.240Z,1.9
2023-10-17T13:23:56.954Z,1
2023-10-17T13:26:05.676Z,1.1
2023-10-17T13:34:29.546Z,1.5
2023-10-17T13:42:54.720Z,1.6
2023-10-17T13:45:00.395Z,1.2
2023-10-17T13:53:23.392Z,0.9
2023-10-17T13:55:33.720Z,1.9
2023-10-17T13:57:39.514Z,1.3
2023-10-17T14:02:16.555Z,1.6
2023-10-17T14:04:22.343Z,1
2023-10-17T14:06:28.121Z,0.8
2023-10-17T14:08:36.780Z,1.9
2023-10-17T14:10:42.709Z,1.3
2023-10-17T14:12:48.331Z,1.5
2023-10-17T14:19:05.817Z,1.7
2023-10-17T14:21:11.360Z,0.7
2023-10-17T14:27:31.711Z,1.1
2023-10-17T14:31:43.147Z,1.2
2023-10-17T14:33:48.953Z,0.7
2023-10-17T14:35:54.640Z,1
2023-10-17T14:50:37.922Z,1.3
2023-10-17T14:52:46.630Z,1.2
2023-10-17T14:54:52.408Z,2.2
2023-10-17T15:00:08.285Z,1
2023-10-17T15:02:14.042Z,0.8
2023-10-17T15:04:19.941Z,1.3
2023-10-17T15:06:28.499Z,1.9
2023-10-17T15:10:40.117Z,1.3
2023-10-17T15:12:45.764Z,1.2
2023-10-17T15:14:51.516Z,1.1
2023-10-17T15:16:57.291Z,1.5
2023-10-17T15:19:03.073Z,1.7
2023-10-17T15:27:28.972Z,1.8
2023-10-17T15:31:40.503Z,1.3
2023-10-17T15:35:54.958Z,1.4
2023-10-17T15:38:00.714Z,1.2
2023-10-17T15:40:06.460Z,1
2023-10-17T15:44:17.944Z,1.7
2023-10-17T15:46:23.814Z,1.7
2023-10-17T15:55:54.039Z,0.9
2023-10-17T15:57:59.751Z,1.3
2023-10-17T16:00:05.483Z,1.6
2023-10-17T16:04:20.028Z,1.5
2023-10-17T16:08:31.418Z,1.6
2023-10-17T16:19:03.201Z,1.2
2023-10-17T16:21:08.845Z,1.4
2023-10-17T16:23:14.597Z,1.6
2023-10-17T16:25:20.317Z,1.4
2023-10-17T16:27:26.081Z,1.7
2023-10-17T16:35:51.964Z,2.3
2023-10-17T16:37:57.702Z,2.1
2023-10-17T16:40:03.558Z,2.5
2023-10-17T16:53:45.432Z,1.7
2023-10-17T16:55:51.234Z,2.3
2023-10-17T16:57:57.181Z,2.1
2023-10-17T17:00:09.681Z,2.4
2023-10-17T17:04:17.511Z,1.9
2023-10-17T17:06:23.367Z,3.4
2023-10-17T17:08:29.159Z,4
2023-10-17T17:10:34.976Z,2.9
2023-10-17T17:12:40.792Z,3.8
2023-10-17T17:14:46.606Z,2.2
2023-10-17T17:16:55.645Z,3.1
2023-10-17T17:19:01.499Z,2.3
2023-10-17T17:21:07.021Z,2.2
2023-10-17T17:23:12.804Z,3.1
2023-10-17T17:25:18.634Z,4
2023-10-17T17:27:25.831Z,3.6
2023-10-17T17:31:39.069Z,3.6
2023-10-17T17:33:44.791Z,3.3
2023-10-17T17:35:50.465Z,3.1
2023-10-17T17:37:56.309Z,3.7
2023-10-17T17:40:02.244Z,3.2
2023-10-17T17:42:07.919Z,2.4
2023-10-17T17:44:13.738Z,3.4
2023-10-17T17:46:22.653Z,3
2023-10-17T17:48:28.430Z,3.1
2023-10-17T17:50:34.051Z,3.5
2023-10-17T17:55:11.386Z,4.3
2023-10-17T17:57:17.066Z,3.2
2023-10-17T17:59:25.825Z,4.4
2023-10-17T18:01:31.593Z,4.3
2023-10-17T18:03:37.370Z,4.7
2023-10-17T18:05:43.164Z,3.4
2023-10-17T18:16:15.366Z,4.1
2023-10-17T18:20:26.821Z,4.8
2023-10-17T18:24:38.492Z,5.3
2023-10-17T18:26:44.207Z,5.6
2023-10-17T18:28:53.093Z,4
2023-10-17T18:33:04.698Z,3
2023-10-17T18:35:10.456Z,4.6
2023-10-17T18:37:16.251Z,4.8
2023-10-17T18:39:22.048Z,3.6
2023-10-17T18:41:27.838Z,3.9
2023-10-17T18:43:36.706Z,4.2
2023-10-17T18:45:42.548Z,5.5
2023-10-17T18:48:52.808Z,5.2
2023-10-17T18:55:10.067Z,4.9
2023-10-17T18:57:18.932Z,5.9
2023-10-17T18:59:24.733Z,4.6
2023-10-17T19:01:30.555Z,5.3
2023-10-17T19:03:36.315Z,4.4
2023-10-17T19:05:42.086Z,4.8
2023-10-17T19:07:47.837Z,4.7
2023-10-17T19:09:53.666Z,6.3
2023-10-17T19:12:02.459Z,5.7
2023-10-17T19:14:08.213Z,5.1
2023-10-17T19:16:14.092Z,6
2023-10-17T19:18:19.768Z,6.7
2023-10-17T19:30:57.513Z,5.8
2023-10-17T19:35:09.096Z,6.1
2023-10-17T19:37:14.775Z,6.4
2023-10-17T19:39:20.537Z,6.3
2023-10-17T19:41:29.361Z,5.6
2023-10-17T19:43:35.183Z,6.5
2023-10-17T19:45:40.989Z,7.5
2023-10-17T19:46:45.396Z,7.3
2023-10-17T19:48:51.152Z,8
2023-10-17T19:50:56.849Z,8.2
2023-10-17T19:53:02.604Z,6.9
2023-10-17T19:55:14.776Z,7.9
2023-10-17T20:01:30.290Z,7.8
2023-10-17T20:05:41.789Z,7.4
2023-10-17T20:07:47.547Z,6.8
2023-10-17T20:09:56.465Z,7.8
2023-10-17T20:12:02.181Z,8.8
2023-10-17T20:14:07.983Z,8.3
2023-10-17T20:16:13.854Z,8.2
2023-10-17T20:18:19.456Z,8.4
2023-10-17T20:20:25.181Z,8.7
2023-10-17T20:26:45.563Z,9.4
2023-10-17T20:28:51.275Z,9.9
2023-10-17T20:30:57.090Z,9.2
2023-10-17T20:44:39.010Z,11
2023-10-17T20:46:44.923Z,9.9
2023-10-17T20:48:50.695Z,10.4
2023-10-17T20:50:56.492Z,10.5
2023-10-17T20:53:05.097Z,10.5
2023-10-17T20:55:10.890Z,11.4
2023-10-17T20:57:16.570Z,11
2023-10-17T20:59:22.293Z,10.6
2023-10-17T21:01:28.066Z,9.1
2023-10-17T21:03:33.860Z,11.5
2023-10-17T21:05:39.538Z,10.8
2023-10-17T21:07:48.342Z,12
2023-10-17T21:09:54.149Z,11.5
2023-10-17T21:14:05.588Z,11.6
2023-10-17T21:16:11.401Z,11.5
2023-10-17T21:28:48.795Z,11.9
2023-10-17T21:33:00.316Z,12.5
2023-10-17T21:39:20.534Z,13.9
2023-10-17T21:41:26.262Z,13.8
2023-10-17T21:43:57.844Z,13
2023-10-17T21:48:09.388Z,13.7
2023-10-17T21:50:18.136Z,14.6
2023-10-17T21:52:23.840Z,14
2023-10-17T21:56:35.328Z,13.7
2023-10-17T22:02:52.565Z,13.1
2023-10-17T22:11:18.548Z,14.1
2023-10-17T22:13:24.272Z,13.7
2023-10-17T22:15:29.999Z,11.9
2023-10-17T22:19:44.625Z,15.4
2023-10-17T22:21:50.342Z,13.8
2023-10-17T22:23:55.995Z,13.8
2023-10-17T22:26:01.705Z,15.2
2023-10-17T22:28:07.433Z,15.9
2023-10-17T22:30:13.139Z,14.5
2023-10-17T22:34:27.684Z,16.6
2023-10-17T22:36:33.459Z,13.7
2023-10-17T22:38:39.128Z,14.9
2023-10-17T22:39:43.590Z,16.1
2023-10-17T22:41:49.263Z,15.5
2023-10-17T22:43:54.994Z,13.8
2023-10-17T22:46:00.731Z,16.7
2023-10-17T22:48:09.480Z,17.2
2023-10-17T22:50:15.189Z,15.6
2023-10-17T22:52:20.916Z,15.3
2023-10-17T22:54:26.646Z,15.2
2023-10-17T22:56:32.371Z,14.6
2023-10-17T22:58:38.080Z,15.4
2023-10-17T23:00:43.847Z,16.5
2023-10-17T23:11:15.450Z,16.8
2023-10-17T23:13:21.174Z,16.3
2023-10-17T23:17:35.728Z,18.8
2023-10-17T23:19:41.443Z,17.9
2023-10-17T23:23:52.819Z,17.8
2023-10-17T23:25:58.524Z,16.1
2023-10-17T23:28:04.289Z,15.9
2023-10-17T23:30:09.970Z,16.5
2023-10-17T23:34:24.473Z,16.2
2023-10-17T23:36:30.190Z,16.5
2023-10-17T23:37:34.579Z,16.3
2023-10-17T23:39:40.309Z,19.3
2023-10-17T23:41:46.000Z,18.1
2023-10-17T23:43:51.709Z,19.6
2023-10-17T23:50:12.124Z,21.3
2023-10-17T23:52:17.638Z,18.5
2023-10-17T23:54:23.320Z,18.4
2023-10-17T23:56:29.005Z,20.4
2023-10-17T23:58:34.728Z,17.9
